Time;durP1;ratioP1;P1;durP2;ratioP2;P2;SDS_P1;SDS_P2;PMS_P1;PMS_P2;Temp;Humidity;BMP_temperature;BMP_pressure;BME280_temperature;BME280_humidity;BME280_pressure;Samples;Min_cycle;Max_cycle;Signal;HPM_P1;HPM_P2
2023/09/29 00:00:25;;;;;;;;;;;16.20;99.90;;;;;;5121044;27;20014;-42
2023/09/29 00:02:53;;;;;;;;;;;16.20;99.90;;;;;;5121107;27;19928;-42
2023/09/29 00:05:18;;;;;;;;;;;16.20;99.90;;;;;;5121184;27;19924;-42
2023/09/29 00:07:44;;;;;;;;;;;16.20;99.90;;;;;;5120874;27;20026;-42
2023/09/29 00:10:12;;;;;;;;;;;16.20;99.90;;;;;;5121162;27;20340;-41
2023/09/29 00:12:39;;;;;;;;;;;16.20;99.90;;;;;;5121080;27;19931;-42
2023/09/29 00:15:05;;;;;;;;;;;16.20;99.90;;;;;;5121045;27;19928;-42
2023/09/29 00:17:31;;;;;;;;;;;16.20;99.90;;;;;;5120967;27;19947;-42
2023/09/29 00:19:57;;;;;;;;;;;16.30;99.90;;;;;;5121015;27;19931;-42
2023/09/29 00:22:22;;;;;;;;;;;16.20;99.90;;;;;;5120740;27;19924;-42
2023/09/29 00:24:48;;;;;;;;;;;16.30;99.90;;;;;;5121105;27;19923;-42
2023/09/29 00:27:14;;;;;;;;;;;16.30;99.90;;;;;;5121053;28;19927;-42
2023/09/29 00:29:39;;;;;;;;;;;16.30;99.90;;;;;;5120969;28;19931;-42
2023/09/29 00:32:05;;;;;;;;;;;16.30;99.90;;;;;;5120865;27;19931;-41
2023/09/29 00:34:31;;;;;;;;;;;16.30;99.90;;;;;;5120868;28;19927;-42
2023/09/29 00:36:56;;;;;;;;;;;16.30;99.90;;;;;;5120687;28;19928;-42
2023/09/29 00:39:22;;;;;;;;;;;16.30;99.90;;;;;;5120649;28;19992;-42
2023/09/29 00:41:49;;;;;;;;;;;16.30;99.90;;;;;;5120965;27;19924;-42
2023/09/29 00:44:15;;;;;;;;;;;16.30;99.90;;;;;;5120910;27;19928;-42
2023/09/29 00:46:41;;;;;;;;;;;16.30;99.90;;;;;;5120942;27;19976;-42
2023/09/29 00:49:07;;;;;;;;;;;16.30;99.90;;;;;;5120567;27;20419;-42
2023/09/29 00:51:34;;;;;;;;;;;16.30;99.90;;;;;;5120474;27;20491;-42
2023/09/29 00:54:02;;;;;;;;;;;16.30;99.90;;;;;;5120637;27;19923;-43
2023/09/29 00:56:28;;;;;;;;;;;16.30;99.90;;;;;;5120768;27;20014;-42
2023/09/29 00:58:55;;;;;;;;;;;16.30;99.90;;;;;;5119767;28;20014;-42
2023/09/29 01:01:22;;;;;;;;;;;16.30;99.90;;;;;;5120844;27;19931;-42
2023/09/29 01:03:50;;;;;;;;;;;16.30;99.90;;;;;;5120694;27;19924;-42
2023/09/29 01:06:16;;;;;;;;;;;16.30;99.90;;;;;;5117067;27;20055;-42
2023/09/29 01:08:44;;;;;;;;;;;16.30;99.90;;;;;;5117444;28;20057;-42
2023/09/29 01:11:10;;;;;;;;;;;16.30;99.90;;;;;;5117313;28;19969;-42
2023/09/29 01:13:40;;;;;;;;;;;16.30;99.90;;;;;;5117410;28;19923;-42
2023/09/29 01:16:06;;;;;;;;;;;16.30;99.90;;;;;;5117329;28;19923;-42
2023/09/29 01:18:33;;;;;;;;;;;16.30;99.90;;;;;;5117061;28;20018;-42
2023/09/29 01:20:59;;;;;;;;;;;16.30;99.90;;;;;;5116141;28;20279;-42
2023/09/29 01:23:28;;;;;;;;;;;16.30;99.90;;;;;;5117101;28;20027;-42
2023/09/29 01:25:53;;;;;;;;;;;16.30;99.90;;;;;;5117155;28;19924;-43
2023/09/29 01:28:19;;;;;;;;;;;16.30;99.90;;;;;;5117559;28;19924;-42
2023/09/29 01:30:45;;;;;;;;;;;16.30;99.90;;;;;;5117062;28;19924;-42
2023/09/29 01:33:11;;;;;;;;;;;16.30;99.90;;;;;;5116683;28;20026;-42
2023/09/29 01:35:36;;;;;;;;;;;16.30;99.90;;;;;;5117011;28;19931;-42
2023/09/29 01:38:02;;;;;;;;;;;16.30;99.90;;;;;;5117057;28;20298;-42
2023/09/29 01:40:28;;;;;;;;;;;16.30;99.90;;;;;;5116720;28;19924;-43
2023/09/29 01:42:56;;;;;;;;;;;16.30;99.90;;;;;;5117247;28;19946;-42
2023/09/29 01:45:22;;;;;;;;;;;16.20;99.90;;;;;;5116791;28;19927;-43
2023/09/29 01:47:48;;;;;;;;;;;16.20;99.90;;;;;;5116455;28;19923;-42
2023/09/29 01:50:17;;;;;;;;;;;16.20;99.90;;;;;;5116691;28;20015;-43
2023/09/29 01:52:43;;;;;;;;;;;16.20;99.90;;;;;;5116453;28;19931;-42
2023/09/29 01:55:10;;;;;;;;;;;16.20;99.90;;;;;;5116552;28;20337;-42
2023/09/29 01:57:35;;;;;;;;;;;16.20;99.90;;;;;;5116555;28;19968;-42
2023/09/29 02:00:01;;;;;;;;;;;16.20;99.90;;;;;;5116240;28;19927;-42
2023/09/29 02:02:27;;;;;;;;;;;16.20;99.90;;;;;;5116212;28;19930;-42
2023/09/29 02:04:52;;;;;;;;;;;16.20;99.90;;;;;;5116378;28;19923;-43
2023/09/29 02:07:18;;;;;;;;;;;16.20;99.90;;;;;;5116397;28;19977;-42
2023/09/29 02:09:44;;;;;;;;;;;16.20;99.90;;;;;;5116294;28;20450;-42
2023/09/29 02:12:10;;;;;;;;;;;16.20;99.90;;;;;;5115949;28;20014;-42
2023/09/29 02:14:35;;;;;;;;;;;16.20;99.90;;;;;;5115932;28;19931;-42
2023/09/29 02:17:01;;;;;;;;;;;16.20;99.90;;;;;;5114736;28;19931;-43
2023/09/29 02:19:27;;;;;;;;;;;16.20;99.90;;;;;;5116176;28;20374;-41
2023/09/29 02:21:53;;;;;;;;;;;16.20;99.90;;;;;;5114812;28;20012;-42
2023/09/29 02:24:18;;;;;;;;;;;16.20;99.90;;;;;;5115981;28;19924;-41
2023/09/29 02:26:44;;;;;;;;;;;16.20;99.90;;;;;;5114662;28;20014;-42
2023/09/29 02:29:10;;;;;;;;;;;16.20;99.90;;;;;;5115005;28;19924;-42
2023/09/29 02:31:36;;;;;;;;;;;16.20;99.90;;;;;;5115559;28;20343;-42
2023/09/29 02:34:02;;;;;;;;;;;16.20;99.90;;;;;;5115742;28;19928;-42
2023/09/29 02:36:28;;;;;;;;;;;16.20;99.90;;;;;;5115581;28;20376;-42
2023/09/29 02:38:54;;;;;;;;;;;16.20;99.90;;;;;;5114534;28;19930;-42
2023/09/29 02:41:20;;;;;;;;;;;16.20;99.90;;;;;;5115439;28;20022;-42
2023/09/29 02:43:46;;;;;;;;;;;16.20;99.90;;;;;;5115592;28;19923;-43
2023/09/29 02:46:15;;;;;;;;;;;16.20;99.90;;;;;;5115402;27;19931;-43
2023/09/29 02:48:41;;;;;;;;;;;16.20;99.90;;;;;;5115921;28;19966;-42
2023/09/29 02:51:17;;;;;;;;;;;16.20;99.90;;;;;;5115355;28;19930;-42
2023/09/29 02:53:43;;;;;;;;;;;16.20;99.90;;;;;;5115530;28;20316;-43
2023/09/29 02:56:10;;;;;;;;;;;16.20;99.90;;;;;;5115234;28;19927;-42
2023/09/29 02:58:36;;;;;;;;;;;16.20;99.90;;;;;;5115199;28;19931;-42
2023/09/29 03:01:01;;;;;;;;;;;16.20;99.90;;;;;;5115195;28;19928;-42
2023/09/29 03:03:27;;;;;;;;;;;16.20;99.90;;;;;;5115230;28;19930;-42
2023/09/29 03:05:53;;;;;;;;;;;16.20;99.90;;;;;;5115596;27;20358;-42
2023/09/29 03:08:18;;;;;;;;;;;16.20;99.90;;;;;;5115057;28;20022;-42
2023/09/29 03:10:44;;;;;;;;;;;16.20;99.90;;;;;;5115045;28;19942;-42
2023/09/29 03:13:11;;;;;;;;;;;16.20;99.90;;;;;;5114740;28;19930;-42
2023/09/29 03:15:36;;;;;;;;;;;16.20;99.90;;;;;;5114865;27;19923;-42
2023/09/29 03:18:02;;;;;;;;;;;16.20;99.90;;;;;;5115045;28;20290;-41
2023/09/29 03:20:27;;;;;;;;;;;16.20;99.90;;;;;;5114917;28;19924;-41
2023/09/29 03:22:56;;;;;;;;;;;16.20;99.90;;;;;;5114812;28;19924;-42
2023/09/29 03:25:22;;;;;;;;;;;16.20;99.90;;;;;;5114787;28;19930;-42
2023/09/29 03:27:48;;;;;;;;;;;16.20;99.90;;;;;;5113653;28;19927;-42
2023/09/29 03:30:13;;;;;;;;;;;16.20;99.90;;;;;;5113180;28;19928;-41
2023/09/29 03:32:39;;;;;;;;;;;16.20;99.90;;;;;;5115153;28;19945;-42
2023/09/29 03:35:05;;;;;;;;;;;16.10;99.90;;;;;;5114698;28;19928;-42
2023/09/29 03:37:36;;;;;;;;;;;16.10;99.90;;;;;;5114650;28;19923;-42
2023/09/29 03:40:06;;;;;;;;;;;16.10;99.90;;;;;;5114722;28;19923;-42
2023/09/29 03:42:33;;;;;;;;;;;16.10;99.90;;;;;;5114658;28;20455;-42
2023/09/29 03:44:58;;;;;;;;;;;16.10;99.90;;;;;;5114624;28;20371;-43
2023/09/29 03:47:24;;;;;;;;;;;16.10;99.90;;;;;;5114508;28;19934;-42
2023/09/29 03:49:50;;;;;;;;;;;16.00;99.90;;;;;;5114946;28;19924;-42
2023/09/29 03:52:15;;;;;;;;;;;16.00;99.90;;;;;;5114423;28;20308;-42
2023/09/29 03:54:41;;;;;;;;;;;16.00;99.90;;;;;;5114660;28;19924;-41
2023/09/29 03:57:10;;;;;;;;;;;16.00;99.90;;;;;;5114443;28;19924;-42
2023/09/29 03:59:36;;;;;;;;;;;16.00;99.90;;;;;;5114691;28;19931;-42
2023/09/29 04:02:02;;;;;;;;;;;16.10;99.90;;;;;;5114484;28;19924;-42
2023/09/29 04:04:28;;;;;;;;;;;16.10;99.90;;;;;;5114575;28;19982;-41
2023/09/29 04:06:53;;;;;;;;;;;16.10;99.90;;;;;;5114411;28;19924;-42
2023/09/29 04:09:20;;;;;;;;;;;16.10;99.90;;;;;;5113495;28;19938;-42
2023/09/29 04:11:46;;;;;;;;;;;16.10;99.90;;;;;;5114261;28;19924;-42
2023/09/29 04:14:11;;;;;;;;;;;16.10;99.90;;;;;;5114377;28;19930;-42
2023/09/29 04:16:37;;;;;;;;;;;16.20;99.90;;;;;;5114384;28;19987;-43
2023/09/29 04:19:02;;;;;;;;;;;16.20;99.90;;;;;;5114235;28;20366;-42
2023/09/29 04:21:28;;;;;;;;;;;16.20;99.90;;;;;;5114258;28;19923;-42
2023/09/29 04:23:53;;;;;;;;;;;16.20;99.90;;;;;;5114302;28;19930;-42
2023/09/29 04:26:20;;;;;;;;;;;16.30;99.90;;;;;;5114190;28;19931;-42
2023/09/29 04:28:46;;;;;;;;;;;16.30;99.90;;;;;;5113085;28;19974;-43
2023/09/29 04:31:14;;;;;;;;;;;16.30;99.90;;;;;;5114166;28;19998;-42
2023/09/29 04:33:40;;;;;;;;;;;16.40;99.90;;;;;;5114428;28;19969;-42
2023/09/29 04:36:06;;;;;;;;;;;16.40;99.90;;;;;;5114105;28;19927;-42
2023/09/29 04:38:32;;;;;;;;;;;16.40;99.90;;;;;;5114001;28;20018;-42
2023/09/29 04:40:58;;;;;;;;;;;16.40;99.90;;;;;;5115798;28;20374;-42
2023/09/29 04:43:23;;;;;;;;;;;16.50;99.90;;;;;;5118056;28;19928;-42
2023/09/29 04:45:49;;;;;;;;;;;16.50;99.90;;;;;;5117883;28;20275;-42
2023/09/29 04:48:15;;;;;;;;;;;16.50;99.90;;;;;;5117721;28;19928;-42
2023/09/29 04:50:40;;;;;;;;;;;16.50;99.90;;;;;;5116848;28;19992;-42
2023/09/29 04:53:06;;;;;;;;;;;16.50;99.90;;;;;;5117636;28;19924;-42
2023/09/29 04:55:31;;;;;;;;;;;16.50;99.90;;;;;;5116256;28;20014;-41
2023/09/29 04:57:57;;;;;;;;;;;16.50;99.90;;;;;;5117651;28;19923;-42
2023/09/29 05:00:22;;;;;;;;;;;16.60;99.90;;;;;;5116813;28;20006;-43
2023/09/29 05:02:48;;;;;;;;;;;16.60;99.90;;;;;;5116397;28;20378;-42
2023/09/29 05:05:14;;;;;;;;;;;16.60;99.90;;;;;;5117551;28;19923;-41
2023/09/29 05:07:39;;;;;;;;;;;16.60;99.90;;;;;;5117387;28;19924;-42
2023/09/29 05:10:05;;;;;;;;;;;16.60;99.90;;;;;;5117252;28;19931;-42
2023/09/29 05:12:32;;;;;;;;;;;16.60;99.90;;;;;;5117395;28;20080;-42
2023/09/29 05:14:57;;;;;;;;;;;16.60;99.90;;;;;;5133343;27;19951;-42
2023/09/29 05:17:23;;;;;;;;;;;16.60;99.90;;;;;;5117369;28;19924;-42
2023/09/29 05:19:48;;;;;;;;;;;16.60;99.90;;;;;;5117284;28;20405;-42
2023/09/29 05:22:14;;;;;;;;;;;16.60;99.90;;;;;;5117275;28;20336;-42
2023/09/29 05:24:39;;;;;;;;;;;16.60;99.90;;;;;;5117042;28;19931;-42
2023/09/29 05:27:05;;;;;;;;;;;16.60;99.90;;;;;;5116940;28;20290;-42
2023/09/29 05:29:31;;;;;;;;;;;16.60;99.90;;;;;;5116183;28;19968;-41
2023/09/29 05:31:56;;;;;;;;;;;16.60;99.90;;;;;;5116967;28;19923;-41
2023/09/29 05:34:22;;;;;;;;;;;16.60;99.90;;;;;;5116989;28;19963;-41
2023/09/29 05:36:48;;;;;;;;;;;16.60;99.90;;;;;;5116929;27;19924;-41
2023/09/29 05:39:14;;;;;;;;;;;16.60;99.90;;;;;;5116961;27;20030;-42
2023/09/29 05:41:40;;;;;;;;;;;16.60;99.90;;;;;;5116692;28;19923;-42
2023/09/29 05:44:05;;;;;;;;;;;16.70;99.90;;;;;;5116801;28;20272;-42
2023/09/29 05:46:31;;;;;;;;;;;16.70;99.90;;;;;;5117376;28;19977;-42
2023/09/29 05:48:57;;;;;;;;;;;16.70;99.90;;;;;;5116808;28;20375;-42
2023/09/29 05:51:22;;;;;;;;;;;16.70;99.90;;;;;;5116335;28;20276;-42
2023/09/29 05:53:48;;;;;;;;;;;16.70;99.90;;;;;;5116395;28;20010;-42
2023/09/29 05:56:14;;;;;;;;;;;16.70;99.90;;;;;;5116531;27;19930;-42
2023/09/29 05:58:40;;;;;;;;;;;16.60;99.90;;;;;;5116616;28;19969;-42
2023/09/29 06:01:07;;;;;;;;;;;16.70;99.90;;;;;;5116543;27;19924;-42
2023/09/29 06:03:33;;;;;;;;;;;16.70;99.90;;;;;;5116742;27;19931;-42
2023/09/29 06:05:58;;;;;;;;;;;16.70;99.90;;;;;;5116254;28;19923;-42
2023/09/29 06:08:24;;;;;;;;;;;16.70;99.90;;;;;;5116236;28;19973;-42
2023/09/29 06:10:49;;;;;;;;;;;16.70;99.90;;;;;;5116069;28;20020;-42
2023/09/29 06:13:15;;;;;;;;;;;16.70;99.90;;;;;;5116497;28;19927;-42
2023/09/29 06:15:41;;;;;;;;;;;16.70;99.90;;;;;;5116261;28;19923;-42
2023/09/29 06:18:06;;;;;;;;;;;16.70;99.90;;;;;;5116206;28;20010;-42
2023/09/29 06:20:32;;;;;;;;;;;16.70;99.90;;;;;;5116270;28;19924;-42
2023/09/29 06:22:57;;;;;;;;;;;16.70;99.90;;;;;;5115886;28;19946;-42
2023/09/29 06:25:23;;;;;;;;;;;16.70;99.90;;;;;;5115988;28;19966;-43
2023/09/29 06:27:49;;;;;;;;;;;16.70;99.90;;;;;;5115972;28;19924;-42
2023/09/29 06:30:14;;;;;;;;;;;16.70;99.90;;;;;;5115897;28;19934;-42
2023/09/29 06:32:41;;;;;;;;;;;16.70;99.90;;;;;;5115772;28;19939;-42
2023/09/29 06:35:06;;;;;;;;;;;16.80;99.90;;;;;;5115896;28;19923;-42
2023/09/29 06:37:32;;;;;;;;;;;16.70;99.90;;;;;;5115663;28;19923;-42
2023/09/29 06:39:58;;;;;;;;;;;16.80;99.90;;;;;;5115531;28;20294;-42
2023/09/29 06:42:23;;;;;;;;;;;16.70;99.90;;;;;;5115690;28;19968;-42
2023/09/29 06:44:49;;;;;;;;;;;16.80;99.90;;;;;;5115638;28;19924;-42
2023/09/29 06:47:14;;;;;;;;;;;16.80;99.90;;;;;;5115469;28;19934;-42
2023/09/29 06:49:40;;;;;;;;;;;16.80;99.90;;;;;;5115498;28;20061;-42
2023/09/29 06:52:05;;;;;;;;;;;16.70;99.90;;;;;;5115352;28;20358;-42
2023/09/29 06:54:31;;;;;;;;;;;16.80;99.90;;;;;;5115298;28;19923;-42
2023/09/29 06:56:57;;;;;;;;;;;16.80;99.90;;;;;;5115200;28;19971;-43
2023/09/29 06:59:22;;;;;;;;;;;16.70;99.90;;;;;;5115334;28;20361;-43
2023/09/29 07:01:48;;;;;;;;;;;16.80;99.90;;;;;;5115157;28;19957;-42
2023/09/29 07:04:13;;;;;;;;;;;16.80;99.90;;;;;;5114775;28;20022;-42
2023/09/29 07:06:40;;;;;;;;;;;16.80;99.90;;;;;;5115149;28;20298;-42
2023/09/29 07:09:07;;;;;;;;;;;16.80;99.90;;;;;;5114938;28;19969;-42
2023/09/29 07:11:32;;;;;;;;;;;16.90;99.90;;;;;;5115284;28;19924;-42
2023/09/29 07:13:58;;;;;;;;;;;16.90;99.90;;;;;;5114927;28;20340;-42
2023/09/29 07:16:23;;;;;;;;;;;16.90;99.90;;;;;;5114959;28;19924;-42
2023/09/29 07:18:49;;;;;;;;;;;16.90;99.90;;;;;;5115060;28;20044;-42
2023/09/29 07:21:15;;;;;;;;;;;16.90;99.90;;;;;;5114995;28;19928;-42
2023/09/29 07:23:40;;;;;;;;;;;17.00;99.90;;;;;;5114886;27;19982;-41
2023/09/29 07:26:06;;;;;;;;;;;17.00;99.90;;;;;;5115015;28;20294;-42
2023/09/29 07:28:33;;;;;;;;;;;17.10;99.90;;;;;;5114987;28;20027;-42
2023/09/29 07:30:59;;;;;;;;;;;17.10;99.90;;;;;;5114863;28;19949;-42
2023/09/29 07:33:24;;;;;;;;;;;17.10;99.90;;;;;;5114691;28;20010;-41
2023/09/29 07:35:50;;;;;;;;;;;17.20;99.90;;;;;;5114841;28;19971;-41
2023/09/29 07:38:17;;;;;;;;;;;17.20;99.90;;;;;;5114612;28;19931;-41
2023/09/29 07:40:43;;;;;;;;;;;17.20;99.90;;;;;;5114465;28;20394;-42
2023/09/29 07:43:09;;;;;;;;;;;17.30;99.90;;;;;;5114792;28;19924;-41
2023/09/29 07:45:34;;;;;;;;;;;17.30;99.90;;;;;;5114695;28;19928;-42
2023/09/29 07:48:00;;;;;;;;;;;17.30;99.90;;;;;;5114549;28;19931;-42
2023/09/29 07:50:26;;;;;;;;;;;17.30;99.90;;;;;;5114593;28;19930;-42
2023/09/29 07:52:52;;;;;;;;;;;17.40;99.90;;;;;;5114378;28;20292;-41
2023/09/29 07:55:18;;;;;;;;;;;17.40;99.90;;;;;;5114989;28;19977;-42
2023/09/29 07:57:44;;;;;;;;;;;17.40;99.90;;;;;;5114558;28;19985;-42
2023/09/29 08:00:11;;;;;;;;;;;17.50;99.90;;;;;;5114566;28;20374;-41
2023/09/29 08:02:37;;;;;;;;;;;17.50;99.90;;;;;;5113574;28;19976;-41
2023/09/29 08:05:03;;;;;;;;;;;17.60;99.90;;;;;;5114280;28;19928;-41
2023/09/29 08:07:28;;;;;;;;;;;17.60;99.90;;;;;;5114459;28;19924;-41
2023/09/29 08:09:54;;;;;;;;;;;17.70;99.90;;;;;;5114592;28;19928;-41
2023/09/29 08:12:21;;;;;;;;;;;17.80;99.90;;;;;;5114326;28;20259;-42
2023/09/29 08:14:47;;;;;;;;;;;17.80;99.90;;;;;;5116201;28;19931;-41
2023/09/29 08:17:13;;;;;;;;;;;17.80;99.90;;;;;;5118660;28;19931;-41
2023/09/29 08:19:39;;;;;;;;;;;17.90;99.90;;;;;;5118388;28;19923;-41
2023/09/29 08:22:05;;;;;;;;;;;17.90;99.90;;;;;;5118461;28;20298;-41
2023/09/29 08:24:31;;;;;;;;;;;18.00;99.90;;;;;;5118209;28;19924;-41
2023/09/29 08:26:57;;;;;;;;;;;18.00;99.90;;;;;;5118802;28;19930;-41
2023/09/29 08:29:23;;;;;;;;;;;18.10;99.90;;;;;;5118256;28;19924;-41
2023/09/29 08:31:49;;;;;;;;;;;18.10;99.90;;;;;;5118140;28;19924;-41
2023/09/29 08:34:14;;;;;;;;;;;18.20;99.90;;;;;;5118274;28;19981;-41
2023/09/29 08:36:40;;;;;;;;;;;18.20;99.90;;;;;;5117193;28;20382;-41
2023/09/29 08:39:06;;;;;;;;;;;18.30;99.90;;;;;;5118195;28;19931;-41
2023/09/29 08:41:32;;;;;;;;;;;18.30;99.90;;;;;;5118009;28;19923;-41
2023/09/29 08:43:59;;;;;;;;;;;18.40;99.90;;;;;;5118211;27;19923;-42
2023/09/29 08:46:24;;;;;;;;;;;18.40;99.90;;;;;;5117988;28;20399;-42
2023/09/29 08:48:51;;;;;;;;;;;18.40;99.90;;;;;;5118206;28;19923;-41
2023/09/29 08:51:17;;;;;;;;;;;18.50;99.90;;;;;;5117809;28;19924;-41
2023/09/29 08:53:43;;;;;;;;;;;18.50;99.90;;;;;;5117369;28;20325;-41
2023/09/29 08:56:14;;;;;;;;;;;18.60;99.90;;;;;;5117749;28;20006;-41
2023/09/29 08:58:40;;;;;;;;;;;18.70;99.90;;;;;;5117709;28;19930;-42
2023/09/29 09:01:05;;;;;;;;;;;18.70;99.90;;;;;;5117914;28;19924;-42
2023/09/29 09:03:31;;;;;;;;;;;18.80;99.90;;;;;;5116516;28;19981;-41
2023/09/29 09:05:57;;;;;;;;;;;18.80;99.90;;;;;;5117620;28;19924;-41
2023/09/29 09:08:24;;;;;;;;;;;18.80;99.90;;;;;;5117587;28;20390;-42
2023/09/29 09:10:56;;;;;;;;;;;18.90;99.90;;;;;;5117568;28;19946;-42
2023/09/29 09:13:22;;;;;;;;;;;18.90;99.90;;;;;;5117630;28;19930;-41
2023/09/29 09:15:55;;;;;;;;;;;19.00;99.90;;;;;;5117143;28;20401;-41
2023/09/29 09:18:21;;;;;;;;;;;19.00;99.90;;;;;;5116516;28;19924;-42
2023/09/29 09:20:50;;;;;;;;;;;19.10;99.90;;;;;;5117322;28;20034;-41
2023/09/29 09:23:16;;;;;;;;;;;19.10;99.90;;;;;;5117284;28;19949;-41
2023/09/29 09:25:43;;;;;;;;;;;19.10;99.90;;;;;;5117278;28;19924;-41
2023/09/29 09:28:16;;;;;;;;;;;19.10;99.90;;;;;;5116764;28;19924;-41
2023/09/29 09:30:42;;;;;;;;;;;19.20;99.90;;;;;;5117005;28;19928;-41
2023/09/29 09:33:15;;;;;;;;;;;19.20;99.90;;;;;;5116946;28;20034;-42
2023/09/29 09:35:42;;;;;;;;;;;19.30;99.90;;;;;;5117057;28;20023;-41
2023/09/29 09:38:08;;;;;;;;;;;19.30;99.90;;;;;;5117037;28;19924;-42
2023/09/29 09:40:34;;;;;;;;;;;19.40;99.90;;;;;;5117016;28;19969;-41
2023/09/29 09:43:03;;;;;;;;;;;19.40;99.90;;;;;;5116922;28;19992;-41
2023/09/29 09:45:37;;;;;;;;;;;19.50;99.90;;;;;;5116942;28;20285;-41
2023/09/29 09:48:04;;;;;;;;;;;19.50;99.90;;;;;;5116981;28;19938;-41
2023/09/29 09:50:31;;;;;;;;;;;19.50;99.90;;;;;;5116792;28;19970;-42
2023/09/29 09:52:58;;;;;;;;;;;19.70;99.90;;;;;;5116501;28;19932;-41
2023/09/29 09:55:27;;;;;;;;;;;19.70;99.90;;;;;;5116380;28;19924;-41
2023/09/29 09:57:53;;;;;;;;;;;19.80;99.90;;;;;;5116631;28;19924;-41
2023/09/29 10:00:19;;;;;;;;;;;19.80;99.90;;;;;;5116495;28;19931;-41
2023/09/29 10:02:46;;;;;;;;;;;19.80;99.90;;;;;;5116495;27;19927;-41
2023/09/29 10:05:17;;;;;;;;;;;19.80;99.90;;;;;;5116472;28;19928;-42
2023/09/29 10:07:46;;;;;;;;;;;19.90;99.90;;;;;;5116694;28;20321;-41
2023/09/29 10:10:23;;;;;;;;;;;20.00;99.90;;;;;;5116463;28;19928;-41
2023/09/29 10:12:52;;;;;;;;;;;20.00;99.90;;;;;;5116143;28;19931;-41
2023/09/29 10:15:18;;;;;;;;;;;20.00;99.90;;;;;;5116288;28;19969;-42
2023/09/29 10:17:44;;;;;;;;;;;20.00;99.90;;;;;;5116264;28;19928;-41
2023/09/29 10:20:19;;;;;;;;;;;20.00;99.90;;;;;;5115311;28;19923;-41
2023/09/29 10:22:46;;;;;;;;;;;20.10;99.90;;;;;;5116196;27;19949;-42
2023/09/29 10:25:19;;;;;;;;;;;20.10;99.90;;;;;;5115875;27;19969;-42
2023/09/29 10:27:49;;;;;;;;;;;20.10;99.90;;;;;;5116103;28;19924;-42
2023/09/29 10:30:18;;;;;;;;;;;20.10;99.90;;;;;;5116136;28;19927;-41
2023/09/29 10:32:48;;;;;;;;;;;20.20;99.90;;;;;;5114776;28;19928;-41
2023/09/29 10:35:20;;;;;;;;;;;20.20;99.90;;;;;;5115844;28;19938;-41
2023/09/29 10:37:49;;;;;;;;;;;20.30;99.90;;;;;;5114967;28;19931;-41
2023/09/29 10:40:22;;;;;;;;;;;20.40;99.90;;;;;;5115683;28;19972;-42
2023/09/29 10:42:48;;;;;;;;;;;20.40;99.90;;;;;;5115763;28;20390;-41
2023/09/29 10:45:24;;;;;;;;;;;20.40;99.90;;;;;;5115703;28;19930;-41
2023/09/29 10:47:49;;;;;;;;;;;20.40;99.90;;;;;;5115664;28;20053;-41
2023/09/29 10:50:15;;;;;;;;;;;20.40;99.90;;;;;;5115467;28;20045;-42
2023/09/29 10:52:40;;;;;;;;;;;20.30;99.90;;;;;;5115692;28;20272;-42
2023/09/29 10:55:11;;;;;;;;;;;20.20;99.90;;;;;;5115120;28;19923;-41
2023/09/29 10:57:37;;;;;;;;;;;20.20;99.90;;;;;;5115435;27;20394;-42
2023/09/29 11:00:05;;;;;;;;;;;20.20;99.90;;;;;;5115400;28;19923;-42
2023/09/29 11:02:32;;;;;;;;;;;20.10;99.90;;;;;;5115247;28;19927;-42
2023/09/29 11:05:05;;;;;;;;;;;20.10;99.90;;;;;;5115113;28;19924;-42
2023/09/29 11:07:48;;;;;;;;;;;20.00;99.90;;;;;;5115329;28;19923;-42
2023/09/29 11:10:14;;;;;;;;;;;20.00;99.90;;;;;;5115241;28;20358;-41
2023/09/29 11:12:44;;;;;;;;;;;20.00;99.90;;;;;;5114937;28;20368;-42
2023/09/29 11:15:10;;;;;;;;;;;20.00;99.90;;;;;;5114171;28;20447;-42
2023/09/29 11:17:49;;;;;;;;;;;20.00;99.90;;;;;;5115010;28;20014;-41
2023/09/29 11:20:33;;;;;;;;;;;19.90;99.90;;;;;;5115089;28;19930;-41
2023/09/29 11:23:07;;;;;;;;;;;19.90;99.90;;;;;;5115119;28;19924;-42
2023/09/29 11:25:43;;;;;;;;;;;19.90;99.90;;;;;;5114115;28;19924;-42
2023/09/29 11:28:11;;;;;;;;;;;19.90;99.90;;;;;;5114999;28;19928;-42
2023/09/29 11:30:36;;;;;;;;;;;19.90;99.90;;;;;;5114809;28;19979;-43
2023/09/29 11:33:02;;;;;;;;;;;19.90;99.90;;;;;;5114783;28;19986;-42
2023/09/29 11:35:28;;;;;;;;;;;19.90;99.90;;;;;;5113613;28;19924;-42
2023/09/29 11:37:54;;;;;;;;;;;19.90;99.90;;;;;;5114681;28;19923;-42
2023/09/29 11:40:19;;;;;;;;;;;19.80;99.90;;;;;;5114530;28;19931;-42
2023/09/29 11:42:45;;;;;;;;;;;19.80;99.90;;;;;;5114901;28;19970;-42
2023/09/29 11:45:10;;;;;;;;;;;19.80;99.90;;;;;;5114639;28;19924;-42
2023/09/29 11:47:38;;;;;;;;;;;19.70;99.90;;;;;;5113450;28;19924;-41
2023/09/29 11:50:04;;;;;;;;;;;19.70;99.90;;;;;;5114435;28;19924;-42
2023/09/29 11:52:30;;;;;;;;;;;19.70;99.90;;;;;;5114553;28;19923;-42
2023/09/29 11:54:56;;;;;;;;;;;19.70;99.90;;;;;;5114523;28;19923;-42
2023/09/29 11:57:21;;;;;;;;;;;19.70;99.90;;;;;;5114598;28;19934;-41
2023/09/29 11:59:47;;;;;;;;;;;19.60;99.90;;;;;;5113971;28;19931;-40
2023/09/29 12:02:14;;;;;;;;;;;19.60;99.90;;;;;;5114519;28;19959;-40
2023/09/29 12:04:39;;;;;;;;;;;19.50;99.90;;;;;;5114538;28;19969;-40
2023/09/29 12:07:05;;;;;;;;;;;19.50;99.90;;;;;;5114511;28;19928;-40
2023/09/29 12:09:31;;;;;;;;;;;19.40;99.90;;;;;;5114406;28;19931;-41
2023/09/29 12:12:00;;;;;;;;;;;19.40;99.90;;;;;;5113291;28;19924;-40
2023/09/29 12:14:26;;;;;;;;;;;19.40;99.90;;;;;;5114478;28;19924;-40
2023/09/29 12:16:53;;;;;;;;;;;19.40;99.90;;;;;;5113503;28;19924;-40
2023/09/29 12:19:20;;;;;;;;;;;19.40;99.90;;;;;;5114389;28;19924;-40
2023/09/29 12:21:47;;;;;;;;;;;19.40;99.90;;;;;;5114168;28;20023;-41
2023/09/29 12:24:14;;;;;;;;;;;19.20;99.90;;;;;;5114209;28;19931;-41
2023/09/29 12:26:46;;;;;;;;;;;19.10;99.90;;;;;;5113404;28;19993;-41
2023/09/29 12:29:14;;;;;;;;;;;18.90;99.90;;;;;;5114430;28;19953;-41
2023/09/29 12:31:40;;;;;;;;;;;18.80;99.90;;;;;;5114020;28;19924;-40
2023/09/29 12:34:05;;;;;;;;;;;18.70;99.90;;;;;;5113013;28;19931;-40
2023/09/29 12:36:31;;;;;;;;;;;18.60;99.90;;;;;;5114164;28;20026;-41
2023/09/29 12:38:57;;;;;;;;;;;18.60;99.90;;;;;;5112967;28;19931;-41
2023/09/29 12:41:25;;;;;;;;;;;18.40;99.90;;;;;;5114193;28;20030;-40
2023/09/29 12:43:51;;;;;;;;;;;18.40;99.90;;;;;;5114215;28;20324;-40
2023/09/29 12:46:17;;;;;;;;;;;18.30;99.90;;;;;;5114012;28;19924;-40
2023/09/29 12:48:43;;;;;;;;;;;18.30;99.90;;;;;;5114096;28;19923;-40
2023/09/29 12:51:16;;;;;;;;;;;18.20;99.90;;;;;;5113917;28;19924;-40
2023/09/29 12:53:42;;;;;;;;;;;18.20;99.90;;;;;;5113800;28;19997;-40
2023/09/29 12:56:09;;;;;;;;;;;18.10;99.90;;;;;;5114056;28;19931;-40
2023/09/29 12:58:35;;;;;;;;;;;18.00;99.90;;;;;;5114624;28;19974;-41
2023/09/29 13:01:01;;;;;;;;;;;17.90;99.90;;;;;;5114098;28;20333;-40
2023/09/29 13:03:27;;;;;;;;;;;17.90;99.90;;;;;;5116606;28;19928;-40
2023/09/29 13:06:03;;;;;;;;;;;17.80;99.90;;;;;;5117363;28;20288;-41
2023/09/29 13:08:29;;;;;;;;;;;17.80;99.90;;;;;;5117695;28;19930;-40
2023/09/29 13:10:55;;;;;;;;;;;17.80;99.90;;;;;;5117571;28;20286;-40
2023/09/29 13:13:21;;;;;;;;;;;17.70;99.90;;;;;;5117488;28;19971;-40
2023/09/29 13:15:46;;;;;;;;;;;17.70;99.90;;;;;;5117379;28;19969;-40
2023/09/29 13:18:12;;;;;;;;;;;17.70;99.90;;;;;;5117211;27;19924;-41
2023/09/29 13:20:38;;;;;;;;;;;17.70;99.90;;;;;;5117174;28;19923;-40
2023/09/29 13:23:04;;;;;;;;;;;17.60;99.90;;;;;;5117338;28;19928;-40
2023/09/29 13:25:30;;;;;;;;;;;17.60;99.90;;;;;;5116301;28;19931;-41
2023/09/29 13:27:57;;;;;;;;;;;17.50;99.90;;;;;;5116381;28;20289;-41
2023/09/29 13:30:23;;;;;;;;;;;17.50;99.90;;;;;;5117185;28;19924;-40
2023/09/29 13:32:49;;;;;;;;;;;17.40;99.90;;;;;;5115615;28;20363;-40
2023/09/29 13:35:14;;;;;;;;;;;17.40;99.90;;;;;;5116868;28;19978;-40
2023/09/29 13:37:40;;;;;;;;;;;17.40;99.90;;;;;;5117039;28;19969;-40
2023/09/29 13:40:06;;;;;;;;;;;17.40;99.90;;;;;;5116114;28;19923;-40
2023/09/29 13:42:32;;;;;;;;;;;17.40;99.90;;;;;;5117064;28;19924;-40
2023/09/29 13:44:58;;;;;;;;;;;17.40;99.90;;;;;;5116767;28;19924;-40
2023/09/29 13:47:26;;;;;;;;;;;17.40;99.90;;;;;;5116780;28;19928;-40
2023/09/29 13:49:52;;;;;;;;;;;17.40;99.90;;;;;;5116454;28;20276;-40
2023/09/29 13:52:19;;;;;;;;;;;17.40;99.90;;;;;;5116944;28;19924;-41
2023/09/29 13:54:48;;;;;;;;;;;17.50;99.90;;;;;;5116558;28;19931;-40
2023/09/29 13:57:14;;;;;;;;;;;17.60;99.90;;;;;;5115742;28;19939;-40
2023/09/29 13:59:40;;;;;;;;;;;17.60;99.90;;;;;;5116485;28;19924;-41
2023/09/29 14:02:09;;;;;;;;;;;17.50;99.90;;;;;;5116512;28;19977;-41
2023/09/29 14:04:35;;;;;;;;;;;17.50;99.90;;;;;;5116333;28;20125;-41
2023/09/29 14:07:01;;;;;;;;;;;17.60;99.90;;;;;;5116488;28;19924;-41
2023/09/29 14:09:26;;;;;;;;;;;17.50;99.90;;;;;;5116473;28;20022;-41
2023/09/29 14:11:52;;;;;;;;;;;17.50;99.90;;;;;;5116132;28;20026;-41